createdAt,value
2017-08-13T00:00:18.884Z,7.90
2017-08-13T00:02:46.444Z,7.20
2017-08-13T00:05:13.970Z,6.87
2017-08-13T00:07:42.296Z,7.27
2017-08-13T00:10:09.862Z,6.80
2017-08-13T00:12:37.414Z,8.07
2017-08-13T00:15:04.938Z,6.33
2017-08-13T00:17:32.498Z,6.70
2017-08-13T00:20:00.022Z,6.53
2017-08-13T00:22:27.573Z,6.73
2017-08-13T00:24:55.107Z,5.70
2017-08-13T00:27:22.658Z,6.57
2017-08-13T00:29:50.194Z,7.00
2017-08-13T00:32:17.742Z,6.80
2017-08-13T00:34:46.042Z,6.43
2017-08-13T00:37:13.602Z,6.97
2017-08-13T00:39:41.131Z,6.57
2017-08-13T00:42:09.451Z,6.73
2017-08-13T00:44:36.973Z,6.50
2017-08-13T00:47:05.263Z,6.67
2017-08-13T00:49:32.810Z,6.50
2017-08-13T00:52:01.102Z,6.03
2017-08-13T00:54:28.646Z,6.10
2017-08-13T00:56:56.934Z,7.10
2017-08-13T00:59:24.482Z,5.97
2017-08-13T01:01:52.027Z,7.07
2017-08-13T01:04:20.346Z,6.50
2017-08-13T01:06:47.875Z,6.67
2017-08-13T01:09:16.197Z,6.53
2017-08-13T01:11:43.718Z,7.57
2017-08-13T01:14:12.035Z,7.13
2017-08-13T01:16:39.562Z,6.90
2017-08-13T01:19:07.118Z,7.03
2017-08-13T01:21:34.658Z,7.90
2017-08-13T01:24:02.974Z,6.70
2017-08-13T01:26:30.510Z,6.63
2017-08-13T01:28:58.828Z,7.07
2017-08-13T01:31:26.358Z,7.60
2017-08-13T01:33:53.906Z,7.17
2017-08-13T01:36:22.202Z,9.00
2017-08-13T01:38:49.765Z,9.07
2017-08-13T01:41:17.311Z,9.43
2017-08-13T01:43:44.875Z,9.90
2017-08-13T01:46:12.423Z,9.53
2017-08-13T01:48:39.974Z,9.40
2017-08-13T01:51:07.546Z,10.23
2017-08-13T01:53:35.095Z,10.90
2017-08-13T01:56:03.431Z,11.70
2017-08-13T01:58:30.966Z,11.53
2017-08-13T02:00:58.546Z,10.40
2017-08-13T02:03:26.077Z,11.50
2017-08-13T02:05:53.641Z,12.27
2017-08-13T02:08:21.175Z,12.27
2017-08-13T02:10:49.515Z,11.87
2017-08-13T02:13:17.049Z,11.30
2017-08-13T02:15:44.614Z,10.70
2017-08-13T02:18:12.171Z,11.40
2017-08-13T02:20:39.737Z,11.23
2017-08-13T02:23:07.275Z,11.40
2017-08-13T02:25:34.838Z,11.30
2017-08-13T02:28:02.380Z,11.03
2017-08-13T02:30:29.962Z,11.60
2017-08-13T02:32:57.498Z,13.20
2017-08-13T02:35:25.827Z,12.33
2017-08-13T02:37:53.354Z,11.50
2017-08-13T02:40:20.915Z,12.63
2017-08-13T02:42:48.462Z,13.63
2017-08-13T02:45:16.022Z,13.30
2017-08-13T02:47:43.559Z,11.80
2017-08-13T02:50:11.906Z,13.10
2017-08-13T02:52:39.435Z,12.30
2017-08-13T02:55:06.980Z,10.57
2017-08-13T02:57:34.634Z,10.40
2017-08-13T03:00:02.175Z,11.67
2017-08-13T03:02:30.503Z,12.40
2017-08-13T03:04:58.043Z,13.87
2017-08-13T03:07:25.607Z,15.03
2017-08-13T03:09:53.140Z,15.10
2017-08-13T03:12:21.463Z,14.57
2017-08-13T03:14:49.006Z,14.37
2017-08-13T03:17:16.579Z,13.73
2017-08-13T03:19:44.113Z,11.53
2017-08-13T03:22:11.664Z,12.43
2017-08-13T03:24:39.971Z,12.80
2017-08-13T03:27:07.531Z,13.00
2017-08-13T03:29:35.071Z,13.07
2017-08-13T03:32:02.633Z,13.10
2017-08-13T03:34:30.166Z,13.10
2017-08-13T03:36:58.495Z,13.33
2017-08-13T03:39:26.030Z,12.60
2017-08-13T03:41:53.585Z,11.93
2017-08-13T03:44:21.136Z,13.53
2017-08-13T03:46:49.465Z,13.27
2017-08-13T03:49:17.007Z,15.27
2017-08-13T03:51:44.558Z,12.67
2017-08-13T03:54:12.127Z,11.83
2017-08-13T03:56:39.662Z,13.33
2017-08-13T03:59:07.229Z,12.63
2017-08-13T04:01:34.770Z,13.07
2017-08-13T04:04:02.346Z,13.70
2017-08-13T04:06:29.887Z,13.17
2017-08-13T04:08:58.237Z,13.93
2017-08-13T04:11:25.782Z,14.40
2017-08-13T04:13:53.348Z,13.17
2017-08-13T04:16:20.882Z,14.17
2017-08-13T04:18:48.449Z,13.47
2017-08-13T04:21:15.986Z,13.30
2017-08-13T04:23:43.567Z,11.30
2017-08-13T04:26:11.109Z,12.67
2017-08-13T04:28:38.670Z,13.13
2017-08-13T04:31:06.207Z,12.83
2017-08-13T04:33:34.539Z,12.23
2017-08-13T04:36:02.083Z,12.30
2017-08-13T04:38:29.647Z,13.97
2017-08-13T04:40:57.180Z,13.97
2017-08-13T04:43:24.738Z,11.87
2017-08-13T04:45:52.273Z,11.77
2017-08-13T04:48:20.603Z,11.93
2017-08-13T04:50:48.139Z,11.47
2017-08-13T04:53:15.701Z,12.50
2017-08-13T04:55:43.232Z,13.63
2017-08-13T04:58:12.184Z,12.60
2017-08-13T05:00:39.717Z,11.80
2017-08-13T05:03:07.255Z,11.43
2017-08-13T05:05:34.822Z,10.57
2017-08-13T05:08:02.382Z,10.00
2017-08-13T05:10:29.944Z,8.10
2017-08-13T05:12:57.482Z,7.57
2017-08-13T05:15:25.820Z,7.40
2017-08-13T05:17:53.347Z,4.90
2017-08-13T05:20:20.895Z,4.57
2017-08-13T05:22:48.423Z,3.93
2017-08-13T05:25:15.990Z,4.57
2017-08-13T05:27:44.286Z,3.27
2017-08-13T05:30:11.863Z,3.30
2017-08-13T05:32:39.404Z,3.13
2017-08-13T05:35:07.728Z,4.03
2017-08-13T05:37:35.271Z,3.70
2017-08-13T05:40:02.825Z,3.47
2017-08-13T05:42:30.358Z,3.50
2017-08-13T05:44:58.681Z,4.10
2017-08-13T05:47:26.206Z,3.70
2017-08-13T05:49:53.755Z,3.60
2017-08-13T05:52:22.046Z,3.70
2017-08-13T05:54:49.609Z,3.97
2017-08-13T05:57:17.138Z,3.80
2017-08-13T05:59:45.443Z,4.83
2017-08-13T06:02:12.979Z,4.10
2017-08-13T06:04:41.282Z,4.03
2017-08-13T06:07:08.843Z,4.27
2017-08-13T06:09:36.374Z,4.00
2017-08-13T06:12:04.700Z,3.87
2017-08-13T06:14:32.233Z,5.20
2017-08-13T06:16:59.782Z,3.90
2017-08-13T06:19:28.076Z,4.50
2017-08-13T06:21:55.622Z,3.97
2017-08-13T06:24:23.903Z,3.90
2017-08-13T06:26:51.447Z,3.47
2017-08-13T06:29:19.751Z,4.20
2017-08-13T06:31:47.307Z,4.70
2017-08-13T06:34:14.834Z,5.40
2017-08-13T06:36:42.388Z,7.50
2017-08-13T06:39:09.919Z,5.10
2017-08-13T06:41:37.465Z,5.40
2017-08-13T06:44:05.002Z,5.27
2017-08-13T06:46:32.550Z,3.53
2017-08-13T06:49:00.840Z,3.80
2017-08-13T06:51:28.394Z,3.47
2017-08-13T06:53:55.925Z,5.00
2017-08-13T06:56:23.496Z,3.80
2017-08-13T06:58:51.798Z,4.23
2017-08-13T07:01:19.329Z,3.67
2017-08-13T07:03:47.646Z,3.73
2017-08-13T07:06:15.171Z,3.60
2017-08-13T07:08:43.502Z,3.80
2017-08-13T07:11:11.035Z,3.53
2017-08-13T07:13:38.579Z,3.60
2017-08-13T07:16:06.111Z,3.70
2017-08-13T07:18:33.658Z,3.27
2017-08-13T07:21:01.183Z,2.87
2017-08-13T07:23:28.732Z,3.50
2017-08-13T07:25:56.254Z,3.23
2017-08-13T07:28:23.807Z,2.63
2017-08-13T07:30:51.328Z,2.97
2017-08-13T07:33:18.874Z,2.90
2017-08-13T07:35:46.395Z,2.67
2017-08-13T07:38:14.718Z,3.27
2017-08-13T07:40:42.246Z,2.70
2017-08-13T07:43:10.571Z,2.97
2017-08-13T07:45:38.095Z,2.93
2017-08-13T07:48:05.653Z,2.67
2017-08-13T07:50:33.191Z,3.00
2017-08-13T07:53:01.506Z,3.03
2017-08-13T07:55:29.042Z,2.80
2017-08-13T07:57:56.600Z,2.53
2017-08-13T08:00:24.892Z,2.70
2017-08-13T08:02:52.418Z,2.30
2017-08-13T08:05:19.971Z,2.70
2017-08-13T08:07:47.503Z,2.50
2017-08-13T08:10:15.064Z,2.50
2017-08-13T08:12:42.585Z,2.53
2017-08-13T08:15:10.135Z,2.50
2017-08-13T08:17:38.427Z,2.60
2017-08-13T08:20:05.987Z,2.30
2017-08-13T08:22:33.519Z,2.57
2017-08-13T08:25:01.847Z,2.23
2017-08-13T08:27:29.383Z,2.20
2017-08-13T08:29:56.939Z,2.40
2017-08-13T08:32:24.462Z,2.53
2017-08-13T08:34:52.011Z,2.40
2017-08-13T08:37:19.530Z,1.87
2017-08-13T08:39:47.082Z,2.47
2017-08-13T08:42:14.602Z,2.90
2017-08-13T08:44:42.142Z,2.20
2017-08-13T08:47:09.672Z,2.47
2017-08-13T08:49:37.227Z,2.57
2017-08-13T08:52:04.768Z,2.43
2017-08-13T08:54:32.332Z,2.40
2017-08-13T08:56:59.877Z,2.27
2017-08-13T08:59:28.207Z,2.60
2017-08-13T09:01:55.740Z,2.30
2017-08-13T09:04:23.266Z,2.80
2017-08-13T09:06:51.585Z,2.67
2017-08-13T09:09:19.111Z,3.00
2017-08-13T09:11:47.430Z,2.30
2017-08-13T09:14:14.959Z,2.50
2017-08-13T09:16:42.516Z,2.93
2017-08-13T09:19:10.042Z,2.57
2017-08-13T09:21:37.594Z,2.50
2017-08-13T09:24:05.119Z,2.63
2017-08-13T09:26:32.665Z,2.63
2017-08-13T09:29:00.189Z,3.03
2017-08-13T09:31:27.739Z,2.80
2017-08-13T09:33:55.273Z,2.57
2017-08-13T09:36:22.825Z,2.57
2017-08-13T09:38:50.364Z,2.53
2017-08-13T09:41:17.923Z,2.43
2017-08-13T09:43:45.447Z,2.90
2017-08-13T09:46:13.795Z,2.50
2017-08-13T09:48:41.319Z,2.67
2017-08-13T09:51:08.867Z,2.80
2017-08-13T09:53:36.417Z,2.27
2017-08-13T09:56:04.738Z,2.17
2017-08-13T09:58:32.271Z,2.40
2017-08-13T10:00:59.804Z,2.50
2017-08-13T10:03:28.124Z,2.40
2017-08-13T10:05:55.661Z,2.50
2017-08-13T10:08:23.216Z,2.27
2017-08-13T10:10:51.511Z,2.30
2017-08-13T10:13:19.059Z,2.53
2017-08-13T10:15:46.603Z,3.13
2017-08-13T10:18:14.159Z,2.40
2017-08-13T10:20:42.471Z,2.20
2017-08-13T10:23:10.027Z,2.20
2017-08-13T10:25:37.555Z,2.90
2017-08-13T10:28:05.893Z,2.70
2017-08-13T10:30:33.425Z,2.70
2017-08-13T10:33:00.984Z,2.60
2017-08-13T10:35:28.530Z,2.30
2017-08-13T10:37:56.077Z,2.83
2017-08-13T10:40:24.380Z,5.73
2017-08-13T10:42:51.931Z,5.00
2017-08-13T10:45:19.461Z,2.93
2017-08-13T10:47:47.782Z,2.90
2017-08-13T10:50:15.306Z,3.00
2017-08-13T10:52:43.627Z,3.27
2017-08-13T10:55:11.142Z,3.20
2017-08-13T10:57:39.455Z,3.40
2017-08-13T11:00:06.979Z,2.63
2017-08-13T11:02:35.323Z,2.90
2017-08-13T11:05:02.857Z,2.97
2017-08-13T11:07:30.387Z,3.03
2017-08-13T11:09:58.719Z,3.07
2017-08-13T11:12:26.242Z,3.13
2017-08-13T11:14:53.803Z,2.97
2017-08-13T11:17:21.325Z,3.67
2017-08-13T11:19:49.635Z,2.83
2017-08-13T11:22:17.161Z,3.10
2017-08-13T11:24:45.479Z,2.70
2017-08-13T11:27:13.005Z,3.20
2017-08-13T11:29:41.327Z,3.10
2017-08-13T11:32:08.855Z,3.10
2017-08-13T11:34:36.405Z,3.40
2017-08-13T11:37:04.708Z,3.10
2017-08-13T11:39:32.263Z,2.73
2017-08-13T11:41:59.801Z,2.57
2017-08-13T11:44:27.356Z,2.80
2017-08-13T11:46:55.655Z,2.80
2017-08-13T11:49:23.208Z,3.07
2017-08-13T11:51:50.737Z,2.70
2017-08-13T11:54:18.298Z,2.97
2017-08-13T11:56:45.832Z,2.90
2017-08-13T11:59:13.378Z,3.10
2017-08-13T12:01:40.908Z,2.47
2017-08-13T12:04:08.462Z,3.27
2017-08-13T12:06:36.760Z,3.10
2017-08-13T12:09:04.327Z,2.93
2017-08-13T12:11:31.847Z,3.40
2017-08-13T12:14:00.155Z,3.00
2017-08-13T12:16:27.707Z,3.00
2017-08-13T12:18:55.243Z,2.87
2017-08-13T12:21:23.571Z,3.00
2017-08-13T12:23:51.114Z,3.10
2017-08-13T12:26:18.664Z,3.03
2017-08-13T12:28:46.202Z,3.10
2017-08-13T12:31:14.523Z,2.77
2017-08-13T12:33:42.050Z,3.00
2017-08-13T12:36:09.605Z,2.80
2017-08-13T12:38:37.897Z,3.00
2017-08-13T12:41:05.450Z,3.33
2017-08-13T12:43:32.987Z,2.93
2017-08-13T12:46:00.541Z,2.90
2017-08-13T12:48:28.073Z,3.40
2017-08-13T12:50:55.625Z,2.97
2017-08-13T12:53:23.151Z,3.10
2017-08-13T12:55:50.711Z,3.10
2017-08-13T12:58:18.249Z,2.80
2017-08-13T13:00:46.574Z,3.07
2017-08-13T13:03:14.156Z,2.30
2017-08-13T13:05:41.732Z,2.80
2017-08-13T13:08:09.271Z,2.33
2017-08-13T13:10:36.800Z,2.13
2017-08-13T13:13:04.351Z,2.50
2017-08-13T13:15:31.884Z,2.60
2017-08-13T13:17:59.439Z,2.20
2017-08-13T13:20:26.966Z,2.20
2017-08-13T13:22:54.522Z,2.50
2017-08-13T13:25:22.058Z,2.27
2017-08-13T13:27:49.616Z,2.40
2017-08-13T13:30:17.148Z,1.97
2017-08-13T13:32:45.465Z,2.00
2017-08-13T13:35:12.995Z,2.07
2017-08-13T13:37:40.548Z,2.10
2017-08-13T13:40:08.852Z,1.93
2017-08-13T13:42:36.398Z,1.97
2017-08-13T13:45:03.925Z,1.80
2017-08-13T13:47:31.480Z,2.50
2017-08-13T13:49:59.007Z,2.50
2017-08-13T13:52:26.555Z,2.40
2017-08-13T13:54:54.082Z,1.93
2017-08-13T13:57:22.402Z,2.73
2017-08-13T13:59:49.927Z,2.27
2017-08-13T14:02:17.471Z,2.23
2017-08-13T14:04:44.999Z,2.53
2017-08-13T14:07:12.553Z,2.30
2017-08-13T14:09:40.080Z,2.10
2017-08-13T14:12:07.619Z,2.43
2017-08-13T14:14:35.938Z,20.20
2017-08-13T14:17:03.474Z,2.20
2017-08-13T14:19:31.031Z,2.20
2017-08-13T14:21:58.575Z,1.90
2017-08-13T14:24:26.901Z,2.03
2017-08-13T14:26:54.431Z,2.13
2017-08-13T14:29:21.986Z,1.97
2017-08-13T14:31:49.519Z,1.97
2017-08-13T14:34:17.834Z,2.97
2017-08-13T14:36:45.363Z,2.57
2017-08-13T14:39:13.687Z,2.60
2017-08-13T14:41:41.223Z,2.83
2017-08-13T14:44:08.779Z,2.47
2017-08-13T14:46:36.310Z,2.37
2017-08-13T14:49:03.867Z,2.10
2017-08-13T14:51:32.160Z,1.77
2017-08-13T14:54:00.488Z,1.80
2017-08-13T14:56:28.013Z,2.30
2017-08-13T14:58:55.569Z,1.80
2017-08-13T15:01:23.095Z,2.00
2017-08-13T15:03:51.424Z,2.00
2017-08-13T15:06:18.947Z,1.80
2017-08-13T15:08:46.502Z,2.00
2017-08-13T15:11:14.795Z,2.10
2017-08-13T15:13:42.346Z,1.90
2017-08-13T15:16:10.649Z,2.20
2017-08-13T15:18:38.236Z,2.00
2017-08-13T15:21:05.763Z,2.20
2017-08-13T15:23:33.287Z,1.80
2017-08-13T15:26:01.603Z,2.00
2017-08-13T15:28:29.125Z,3.07
2017-08-13T15:30:56.674Z,2.00
2017-08-13T15:33:24.208Z,1.80
2017-08-13T15:35:51.759Z,2.13
2017-08-13T15:38:19.286Z,1.90
2017-08-13T15:40:46.835Z,2.57
2017-08-13T15:43:15.136Z,2.03
2017-08-13T15:45:42.677Z,2.10
2017-08-13T15:48:10.220Z,2.07
2017-08-13T15:50:38.544Z,1.90
2017-08-13T15:53:06.075Z,2.00
2017-08-13T15:55:33.630Z,1.83
2017-08-13T15:58:01.930Z,2.37
2017-08-13T16:00:29.479Z,1.93
2017-08-13T16:02:57.019Z,2.20
2017-08-13T16:05:24.583Z,2.37
2017-08-13T16:07:52.879Z,2.30
2017-08-13T16:10:20.436Z,2.00
2017-08-13T16:12:47.968Z,2.30
2017-08-13T16:15:15.511Z,2.00
2017-08-13T16:17:43.039Z,2.03
2017-08-13T16:20:10.598Z,1.90
2017-08-13T16:22:38.122Z,2.23
2017-08-13T16:25:06.417Z,1.83
2017-08-13T16:27:33.967Z,2.13
2017-08-13T16:30:01.497Z,2.23
2017-08-13T16:32:29.050Z,2.10
2017-08-13T16:34:56.575Z,2.10
2017-08-13T16:37:24.127Z,2.10
2017-08-13T16:39:51.653Z,1.73
2017-08-13T16:42:19.963Z,2.00
2017-08-13T16:44:47.490Z,1.97
2017-08-13T16:47:15.810Z,2.00
2017-08-13T16:49:43.338Z,1.87
2017-08-13T16:52:10.891Z,2.30
2017-08-13T16:54:39.178Z,2.40
2017-08-13T16:57:06.721Z,2.07
2017-08-13T16:59:35.018Z,2.10
2017-08-13T17:02:02.571Z,1.77
2017-08-13T17:04:30.095Z,1.90
2017-08-13T17:06:57.644Z,1.73
2017-08-13T17:09:25.170Z,2.10
2017-08-13T17:11:52.733Z,1.97
2017-08-13T17:14:20.273Z,2.10
2017-08-13T17:16:47.822Z,2.03
2017-08-13T17:19:16.112Z,2.00
2017-08-13T17:21:43.666Z,2.07
2017-08-13T17:24:11.192Z,2.03
2017-08-13T17:26:38.732Z,2.20
2017-08-13T17:29:06.286Z,1.90
2017-08-13T17:31:33.811Z,2.33
2017-08-13T17:34:01.369Z,2.03
2017-08-13T17:36:28.900Z,2.17
2017-08-13T17:38:57.226Z,2.20
2017-08-13T17:41:24.768Z,2.30
2017-08-13T17:43:52.328Z,2.23
2017-08-13T17:46:19.858Z,1.83
2017-08-13T17:48:47.418Z,1.87
2017-08-13T17:51:15.726Z,2.40
2017-08-13T17:53:43.285Z,2.13
2017-08-13T17:56:10.815Z,2.60
2017-08-13T17:58:39.142Z,2.50
2017-08-13T18:01:06.675Z,2.73
2017-08-13T18:03:34.222Z,2.37
2017-08-13T18:06:02.526Z,2.30
2017-08-13T18:08:30.086Z,2.10
2017-08-13T18:10:57.609Z,2.30
2017-08-13T18:13:25.941Z,2.37
2017-08-13T18:15:53.475Z,2.10
2017-08-13T18:18:21.030Z,2.80
2017-08-13T18:20:48.566Z,2.67
2017-08-13T18:23:16.906Z,2.60
2017-08-13T18:25:44.434Z,2.23
2017-08-13T18:28:11.995Z,2.13
2017-08-13T18:30:39.523Z,3.40
2017-08-13T18:33:07.828Z,2.80
2017-08-13T18:35:35.371Z,2.47
2017-08-13T18:38:03.658Z,2.80
2017-08-13T18:40:31.202Z,2.80
2017-08-13T18:42:59.494Z,3.00
2017-08-13T18:45:27.045Z,2.90
2017-08-13T18:47:54.573Z,2.70
2017-08-13T18:50:22.117Z,2.60
2017-08-13T18:52:49.638Z,2.90
2017-08-13T18:55:17.186Z,3.20
2017-08-13T18:57:44.707Z,3.23
2017-08-13T19:00:12.250Z,3.17
2017-08-13T19:02:39.780Z,3.40
2017-08-13T19:05:07.327Z,2.90
2017-08-13T19:07:34.862Z,3.20
2017-08-13T19:10:03.182Z,3.70
2017-08-13T19:12:30.718Z,2.70
2017-08-13T19:14:58.273Z,3.70
2017-08-13T19:17:26.570Z,3.90
2017-08-13T19:19:54.139Z,3.20
2017-08-13T19:22:21.669Z,3.00
2017-08-13T19:24:49.987Z,3.33
2017-08-13T19:27:17.510Z,3.23
2017-08-13T19:29:45.055Z,3.47
2017-08-13T19:32:13.351Z,3.30
2017-08-13T19:34:40.918Z,3.07
2017-08-13T19:37:08.443Z,3.60
2017-08-13T19:39:35.966Z,3.10
2017-08-13T19:42:03.518Z,4.00
2017-08-13T19:44:31.050Z,3.13
2017-08-13T19:46:58.591Z,3.40
2017-08-13T19:49:26.886Z,3.20
2017-08-13T19:51:54.431Z,3.80
2017-08-13T19:54:22.742Z,3.17
2017-08-13T19:56:50.286Z,3.70
2017-08-13T19:59:17.814Z,3.67
2017-08-13T20:01:45.363Z,3.00
2017-08-13T20:04:12.890Z,3.40
2017-08-13T20:06:40.436Z,3.90
2017-08-13T20:09:07.962Z,4.13
2017-08-13T20:11:36.278Z,3.80
2017-08-13T20:14:03.800Z,3.70
2017-08-13T20:16:32.114Z,3.73
2017-08-13T20:18:59.648Z,3.70
2017-08-13T20:21:27.198Z,3.47
2017-08-13T20:23:55.495Z,3.40
2017-08-13T20:26:23.046Z,3.60
2017-08-13T20:28:50.571Z,3.73
2017-08-13T20:31:18.189Z,4.23
2017-08-13T20:33:45.718Z,3.60
2017-08-13T20:36:14.039Z,3.80
2017-08-13T20:38:41.643Z,3.40
2017-08-13T20:41:09.974Z,3.57
2017-08-13T20:43:37.510Z,4.00
2017-08-13T20:46:05.037Z,4.00
2017-08-13T20:48:33.360Z,3.13
2017-08-13T20:51:00.894Z,4.27
2017-08-13T20:53:29.211Z,3.93
2017-08-13T20:55:56.734Z,4.10
2017-08-13T20:58:24.294Z,4.37
2017-08-13T21:00:51.819Z,3.73
2017-08-13T21:03:19.370Z,3.93
2017-08-13T21:05:46.895Z,5.00
2017-08-13T21:08:14.439Z,4.47
2017-08-13T21:10:41.967Z,4.37
2017-08-13T21:13:10.299Z,4.30
2017-08-13T21:15:37.830Z,4.50
2017-08-13T21:18:05.374Z,4.47
2017-08-13T21:20:33.674Z,4.37
2017-08-13T21:23:01.219Z,3.80
2017-08-13T21:25:28.750Z,4.17
2017-08-13T21:27:57.086Z,3.93
2017-08-13T21:30:24.616Z,4.23
2017-08-13T21:32:52.929Z,4.20
2017-08-13T21:35:20.463Z,4.30
2017-08-13T21:37:48.010Z,4.13
2017-08-13T21:40:16.299Z,4.00
2017-08-13T21:42:43.862Z,4.47
2017-08-13T21:45:11.389Z,3.43
2017-08-13T21:47:38.921Z,4.50
2017-08-13T21:50:06.474Z,5.50
2017-08-13T21:52:34.007Z,5.67
2017-08-13T21:55:01.562Z,4.70
2017-08-13T21:57:29.086Z,5.27
2017-08-13T21:59:56.648Z,5.87
2017-08-13T22:02:24.943Z,4.77
2017-08-13T22:04:52.493Z,6.20
2017-08-13T22:07:20.790Z,5.50
2017-08-13T22:09:48.339Z,5.20
2017-08-13T22:12:16.628Z,4.50
2017-08-13T22:14:44.174Z,5.30
2017-08-13T22:17:12.462Z,4.87
2017-08-13T22:19:40.021Z,4.87
2017-08-13T22:22:07.538Z,4.73
2017-08-13T22:24:35.090Z,5.40
2017-08-13T22:27:02.606Z,5.03
2017-08-13T22:29:30.158Z,5.60
2017-08-13T22:51:11.350Z,6.97
2017-08-13T22:53:39.646Z,7.13
2017-08-13T22:56:07.207Z,6.67
2017-08-13T22:58:34.739Z,5.60
2017-08-13T23:01:07.880Z,5.87
2017-08-13T23:03:35.397Z,6.60
2017-08-13T23:06:03.712Z,5.47
2017-08-13T23:08:31.239Z,6.30
2017-08-13T23:10:59.567Z,5.40
2017-08-13T23:13:27.093Z,5.60
2017-08-13T23:15:54.650Z,5.77
2017-08-13T23:18:22.175Z,6.00
2017-08-13T23:20:49.727Z,5.00
2017-08-13T23:23:17.250Z,5.23
2017-08-13T23:25:44.798Z,5.70
2017-08-13T23:28:12.332Z,5.50
2017-08-13T23:30:39.887Z,5.63
2017-08-13T23:33:08.181Z,4.83
2017-08-13T23:35:35.727Z,5.40
2017-08-13T23:38:04.023Z,5.43
2017-08-13T23:40:31.571Z,5.10
2017-08-13T23:42:59.858Z,5.30
2017-08-13T23:45:27.390Z,5.73
2017-08-13T23:47:54.947Z,5.40
2017-08-13T23:50:22.470Z,5.47
2017-08-13T23:52:50.012Z,5.50
2017-08-13T23:55:17.533Z,5.63
2017-08-13T23:57:45.868Z,5.90
